sensor_id;sensor_type;location;lat;lon;timestamp;P1;durP1;ratioP1;P2;durP2;ratioP2
34928;SDS011;21133;48.048;7.724;2023-02-04T00:00:07;0.73;;;0.73;;
34928;SDS011;21133;48.048;7.724;2023-02-04T00:02:33;0.97;;;0.97;;
34928;SDS011;21133;48.048;7.724;2023-02-04T00:04:59;7.40;;;0.63;;
34928;SDS011;21133;48.048;7.724;2023-02-04T00:07:25;4.37;;;0.93;;
34928;SDS011;21133;48.048;7.724;2023-02-04T00:09:51;1.00;;;1.00;;
34928;SDS011;21133;48.048;7.724;2023-02-04T00:12:17;0.73;;;0.73;;
34928;SDS011;21133;48.048;7.724;2023-02-04T00:14:43;0.97;;;0.97;;
34928;SDS011;21133;48.048;7.724;2023-02-04T00:17:09;0.80;;;0.80;;
34928;SDS011;21133;48.048;7.724;2023-02-04T00:19:37;0.63;;;0.63;;
34928;SDS011;21133;48.048;7.724;2023-02-04T00:22:03;2.00;;;1.00;;
34928;SDS011;21133;48.048;7.724;2023-02-04T00:24:29;2.70;;;0.80;;
34928;SDS011;21133;48.048;7.724;2023-02-04T00:26:55;0.80;;;0.80;;
34928;SDS011;21133;48.048;7.724;2023-02-04T00:29:21;0.90;;;0.90;;
34928;SDS011;21133;48.048;7.724;2023-02-04T00:31:47;0.97;;;0.97;;
34928;SDS011;21133;48.048;7.724;2023-02-04T00:34:13;0.70;;;0.70;;
34928;SDS011;21133;48.048;7.724;2023-02-04T00:36:39;0.90;;;0.90;;
34928;SDS011;21133;48.048;7.724;2023-02-04T00:39:05;0.80;;;0.80;;
34928;SDS011;21133;48.048;7.724;2023-02-04T00:41:31;3.00;;;1.07;;
34928;SDS011;21133;48.048;7.724;2023-02-04T00:43:57;0.87;;;0.87;;
34928;SDS011;21133;48.048;7.724;2023-02-04T00:46:23;0.87;;;0.87;;
34928;SDS011;21133;48.048;7.724;2023-02-04T00:48:49;1.00;;;1.00;;
34928;SDS011;21133;48.048;7.724;2023-02-04T00:51:14;1.33;;;0.90;;
34928;SDS011;21133;48.048;7.724;2023-02-04T00:53:40;0.67;;;0.67;;
34928;SDS011;21133;48.048;7.724;2023-02-04T00:56:06;1.03;;;1.03;;
34928;SDS011;21133;48.048;7.724;2023-02-04T00:58:32;1.20;;;1.10;;
34928;SDS011;21133;48.048;7.724;2023-02-04T01:00:58;1.50;;;1.50;;
34928;SDS011;21133;48.048;7.724;2023-02-04T01:03:24;0.80;;;0.80;;
34928;SDS011;21133;48.048;7.724;2023-02-04T01:05:50;1.00;;;1.00;;
34928;SDS011;21133;48.048;7.724;2023-02-04T01:08:16;1.60;;;1.50;;
34928;SDS011;21133;48.048;7.724;2023-02-04T01:10:42;0.80;;;0.80;;
34928;SDS011;21133;48.048;7.724;2023-02-04T01:13:08;1.27;;;0.70;;
34928;SDS011;21133;48.048;7.724;2023-02-04T01:15:34;2.30;;;1.10;;
34928;SDS011;21133;48.048;7.724;2023-02-04T01:18:00;1.03;;;1.03;;
34928;SDS011;21133;48.048;7.724;2023-02-04T01:20:26;0.87;;;0.87;;
34928;SDS011;21133;48.048;7.724;2023-02-04T01:22:52;1.07;;;1.07;;
34928;SDS011;21133;48.048;7.724;2023-02-04T01:25:18;3.17;;;0.80;;
34928;SDS011;21133;48.048;7.724;2023-02-04T01:27:44;1.30;;;1.30;;
34928;SDS011;21133;48.048;7.724;2023-02-04T01:30:11;0.90;;;0.90;;
34928;SDS011;21133;48.048;7.724;2023-02-04T01:32:37;1.20;;;1.20;;
34928;SDS011;21133;48.048;7.724;2023-02-04T01:35:03;1.00;;;1.00;;
34928;SDS011;21133;48.048;7.724;2023-02-04T01:37:29;1.00;;;1.00;;
34928;SDS011;21133;48.048;7.724;2023-02-04T01:39:55;1.23;;;1.23;;
34928;SDS011;21133;48.048;7.724;2023-02-04T01:42:21;1.23;;;1.03;;
34928;SDS011;21133;48.048;7.724;2023-02-04T01:44:47;0.80;;;0.80;;
34928;SDS011;21133;48.048;7.724;2023-02-04T01:47:13;1.23;;;0.97;;
34928;SDS011;21133;48.048;7.724;2023-02-04T01:49:39;0.90;;;0.90;;
34928;SDS011;21133;48.048;7.724;2023-02-04T01:52:05;0.93;;;0.93;;
34928;SDS011;21133;48.048;7.724;2023-02-04T01:54:31;1.37;;;1.20;;
34928;SDS011;21133;48.048;7.724;2023-02-04T01:56:58;1.23;;;1.23;;
34928;SDS011;21133;48.048;7.724;2023-02-04T01:59:23;1.10;;;1.10;;
34928;SDS011;21133;48.048;7.724;2023-02-04T02:01:50;1.17;;;1.17;;
34928;SDS011;21133;48.048;7.724;2023-02-04T02:04:17;1.00;;;1.00;;
34928;SDS011;21133;48.048;7.724;2023-02-04T02:06:46;1.13;;;1.13;;
34928;SDS011;21133;48.048;7.724;2023-02-04T02:09:13;1.10;;;1.10;;
34928;SDS011;21133;48.048;7.724;2023-02-04T02:11:39;1.63;;;1.53;;
34928;SDS011;21133;48.048;7.724;2023-02-04T02:14:05;1.00;;;1.00;;
34928;SDS011;21133;48.048;7.724;2023-02-04T02:16:31;0.90;;;0.90;;
34928;SDS011;21133;48.048;7.724;2023-02-04T02:18:57;1.07;;;0.80;;
34928;SDS011;21133;48.048;7.724;2023-02-04T02:21:28;1.57;;;1.57;;
34928;SDS011;21133;48.048;7.724;2023-02-04T02:23:55;2.57;;;1.10;;
34928;SDS011;21133;48.048;7.724;2023-02-04T02:26:21;1.33;;;1.33;;
34928;SDS011;21133;48.048;7.724;2023-02-04T02:28:48;1.23;;;1.13;;
34928;SDS011;21133;48.048;7.724;2023-02-04T02:31:14;1.13;;;1.13;;
34928;SDS011;21133;48.048;7.724;2023-02-04T02:33:40;1.13;;;1.10;;
34928;SDS011;21133;48.048;7.724;2023-02-04T02:36:07;0.93;;;0.93;;
34928;SDS011;21133;48.048;7.724;2023-02-04T02:38:33;2.10;;;1.20;;
34928;SDS011;21133;48.048;7.724;2023-02-04T02:40:59;0.87;;;0.87;;
34928;SDS011;21133;48.048;7.724;2023-02-04T02:43:25;1.53;;;1.50;;
34928;SDS011;21133;48.048;7.724;2023-02-04T02:45:51;1.87;;;1.77;;
34928;SDS011;21133;48.048;7.724;2023-02-04T02:48:18;1.20;;;1.20;;
34928;SDS011;21133;48.048;7.724;2023-02-04T02:50:45;1.00;;;1.00;;
34928;SDS011;21133;48.048;7.724;2023-02-04T02:53:12;2.47;;;1.10;;
34928;SDS011;21133;48.048;7.724;2023-02-04T02:55:38;1.00;;;1.00;;
34928;SDS011;21133;48.048;7.724;2023-02-04T02:58:08;0.87;;;0.87;;
34928;SDS011;21133;48.048;7.724;2023-02-04T03:00:37;1.27;;;1.27;;
34928;SDS011;21133;48.048;7.724;2023-02-04T03:05:29;2.57;;;1.17;;
34928;SDS011;21133;48.048;7.724;2023-02-04T03:07:56;0.80;;;0.80;;
34928;SDS011;21133;48.048;7.724;2023-02-04T03:10:22;0.80;;;0.80;;
34928;SDS011;21133;48.048;7.724;2023-02-04T03:12:48;1.40;;;1.40;;
34928;SDS011;21133;48.048;7.724;2023-02-04T03:15:14;1.00;;;1.00;;
34928;SDS011;21133;48.048;7.724;2023-02-04T03:17:40;3.80;;;1.10;;
34928;SDS011;21133;48.048;7.724;2023-02-04T03:20:08;0.97;;;0.97;;
34928;SDS011;21133;48.048;7.724;2023-02-04T03:22:35;1.40;;;1.03;;
34928;SDS011;21133;48.048;7.724;2023-02-04T03:25:01;1.40;;;1.30;;
34928;SDS011;21133;48.048;7.724;2023-02-04T03:27:27;0.67;;;0.67;;
34928;SDS011;21133;48.048;7.724;2023-02-04T03:29:53;1.40;;;1.40;;
34928;SDS011;21133;48.048;7.724;2023-02-04T03:32:19;1.13;;;1.13;;
34928;SDS011;21133;48.048;7.724;2023-02-04T03:34:45;1.17;;;0.90;;
34928;SDS011;21133;48.048;7.724;2023-02-04T03:37:11;0.93;;;0.93;;
34928;SDS011;21133;48.048;7.724;2023-02-04T03:39:37;1.00;;;1.00;;
34928;SDS011;21133;48.048;7.724;2023-02-04T03:42:04;1.23;;;1.20;;
34928;SDS011;21133;48.048;7.724;2023-02-04T03:44:30;2.97;;;1.23;;
34928;SDS011;21133;48.048;7.724;2023-02-04T03:46:56;2.50;;;1.30;;
34928;SDS011;21133;48.048;7.724;2023-02-04T03:49:23;1.00;;;1.00;;
34928;SDS011;21133;48.048;7.724;2023-02-04T03:51:49;1.03;;;1.03;;
34928;SDS011;21133;48.048;7.724;2023-02-04T03:54:15;0.97;;;0.97;;
34928;SDS011;21133;48.048;7.724;2023-02-04T03:56:41;1.20;;;1.20;;
34928;SDS011;21133;48.048;7.724;2023-02-04T03:59:07;0.90;;;0.90;;
34928;SDS011;21133;48.048;7.724;2023-02-04T04:01:33;1.00;;;1.00;;
34928;SDS011;21133;48.048;7.724;2023-02-04T04:03:59;1.87;;;1.87;;
34928;SDS011;21133;48.048;7.724;2023-02-04T04:06:25;1.23;;;1.20;;
34928;SDS011;21133;48.048;7.724;2023-02-04T04:08:51;1.23;;;1.23;;
34928;SDS011;21133;48.048;7.724;2023-02-04T04:11:17;1.43;;;1.43;;
34928;SDS011;21133;48.048;7.724;2023-02-04T04:13:45;1.13;;;1.13;;
34928;SDS011;21133;48.048;7.724;2023-02-04T04:16:11;1.47;;;1.20;;
34928;SDS011;21133;48.048;7.724;2023-02-04T04:18:37;1.50;;;1.40;;
34928;SDS011;21133;48.048;7.724;2023-02-04T04:21:03;1.30;;;1.23;;
34928;SDS011;21133;48.048;7.724;2023-02-04T04:23:29;0.93;;;0.93;;
34928;SDS011;21133;48.048;7.724;2023-02-04T04:25:55;2.83;;;1.07;;
34928;SDS011;21133;48.048;7.724;2023-02-04T04:28:21;2.40;;;1.27;;
34928;SDS011;21133;48.048;7.724;2023-02-04T04:30:47;0.90;;;0.90;;
34928;SDS011;21133;48.048;7.724;2023-02-04T04:33:13;1.57;;;1.53;;
34928;SDS011;21133;48.048;7.724;2023-02-04T04:35:39;1.40;;;1.40;;
34928;SDS011;21133;48.048;7.724;2023-02-04T04:38:05;1.27;;;1.17;;
34928;SDS011;21133;48.048;7.724;2023-02-04T04:40:31;1.20;;;1.20;;
34928;SDS011;21133;48.048;7.724;2023-02-04T04:42:57;1.03;;;1.03;;
34928;SDS011;21133;48.048;7.724;2023-02-04T04:45:23;1.00;;;1.00;;
34928;SDS011;21133;48.048;7.724;2023-02-04T04:47:49;1.33;;;1.33;;
34928;SDS011;21133;48.048;7.724;2023-02-04T04:50:15;1.23;;;1.23;;
34928;SDS011;21133;48.048;7.724;2023-02-04T04:52:41;1.10;;;1.10;;
34928;SDS011;21133;48.048;7.724;2023-02-04T04:55:07;1.10;;;1.10;;
34928;SDS011;21133;48.048;7.724;2023-02-04T04:57:33;1.23;;;1.23;;
34928;SDS011;21133;48.048;7.724;2023-02-04T04:59:59;1.03;;;1.03;;
34928;SDS011;21133;48.048;7.724;2023-02-04T05:02:25;1.53;;;1.53;;
34928;SDS011;21133;48.048;7.724;2023-02-04T05:04:51;1.10;;;1.10;;
34928;SDS011;21133;48.048;7.724;2023-02-04T05:07:17;4.27;;;1.20;;
34928;SDS011;21133;48.048;7.724;2023-02-04T05:09:43;1.30;;;1.30;;
34928;SDS011;21133;48.048;7.724;2023-02-04T05:12:09;1.45;;;1.35;;
34928;SDS011;21133;48.048;7.724;2023-02-04T05:14:35;1.10;;;1.10;;
34928;SDS011;21133;48.048;7.724;2023-02-04T05:17:01;1.10;;;1.10;;
34928;SDS011;21133;48.048;7.724;2023-02-04T05:19:27;1.23;;;0.90;;
34928;SDS011;21133;48.048;7.724;2023-02-04T05:21:53;1.00;;;1.00;;
34928;SDS011;21133;48.048;7.724;2023-02-04T05:24:19;1.43;;;1.33;;
34928;SDS011;21133;48.048;7.724;2023-02-04T05:26:45;1.53;;;1.47;;
34928;SDS011;21133;48.048;7.724;2023-02-04T05:29:11;1.90;;;1.90;;
34928;SDS011;21133;48.048;7.724;2023-02-04T05:31:37;1.97;;;1.87;;
34928;SDS011;21133;48.048;7.724;2023-02-04T05:34:03;1.40;;;1.40;;
34928;SDS011;21133;48.048;7.724;2023-02-04T05:36:28;1.73;;;1.73;;
34928;SDS011;21133;48.048;7.724;2023-02-04T05:38:54;1.60;;;1.50;;
34928;SDS011;21133;48.048;7.724;2023-02-04T05:41:20;1.63;;;1.53;;
34928;SDS011;21133;48.048;7.724;2023-02-04T05:43:46;2.37;;;1.30;;
34928;SDS011;21133;48.048;7.724;2023-02-04T05:46:12;1.23;;;1.23;;
34928;SDS011;21133;48.048;7.724;2023-02-04T05:48:38;2.53;;;1.03;;
34928;SDS011;21133;48.048;7.724;2023-02-04T05:51:04;1.37;;;1.00;;
34928;SDS011;21133;48.048;7.724;2023-02-04T05:53:30;1.00;;;1.00;;
34928;SDS011;21133;48.048;7.724;2023-02-04T05:55:56;1.50;;;1.50;;
34928;SDS011;21133;48.048;7.724;2023-02-04T05:58:22;1.27;;;1.27;;
34928;SDS011;21133;48.048;7.724;2023-02-04T06:00:48;1.27;;;1.27;;
34928;SDS011;21133;48.048;7.724;2023-02-04T06:03:14;3.70;;;1.20;;
34928;SDS011;21133;48.048;7.724;2023-02-04T06:05:43;1.30;;;1.30;;
34928;SDS011;21133;48.048;7.724;2023-02-04T06:08:09;1.03;;;1.03;;
34928;SDS011;21133;48.048;7.724;2023-02-04T06:10:35;1.00;;;1.00;;
34928;SDS011;21133;48.048;7.724;2023-02-04T06:13:01;1.70;;;1.70;;
34928;SDS011;21133;48.048;7.724;2023-02-04T06:15:27;1.30;;;1.30;;
34928;SDS011;21133;48.048;7.724;2023-02-04T06:17:53;1.50;;;1.50;;
34928;SDS011;21133;48.048;7.724;2023-02-04T06:20:19;1.70;;;1.70;;
34928;SDS011;21133;48.048;7.724;2023-02-04T06:22:45;1.60;;;1.20;;
34928;SDS011;21133;48.048;7.724;2023-02-04T06:25:11;1.40;;;1.40;;
34928;SDS011;21133;48.048;7.724;2023-02-04T06:27:37;2.47;;;2.10;;
34928;SDS011;21133;48.048;7.724;2023-02-04T06:30:03;1.47;;;1.43;;
34928;SDS011;21133;48.048;7.724;2023-02-04T06:32:29;1.20;;;1.20;;
34928;SDS011;21133;48.048;7.724;2023-02-04T06:34:55;1.07;;;1.07;;
34928;SDS011;21133;48.048;7.724;2023-02-04T06:37:21;1.53;;;1.53;;
34928;SDS011;21133;48.048;7.724;2023-02-04T06:39:47;1.53;;;1.53;;
34928;SDS011;21133;48.048;7.724;2023-02-04T06:42:13;1.07;;;1.07;;
34928;SDS011;21133;48.048;7.724;2023-02-04T06:44:39;14.07;;;1.00;;
34928;SDS011;21133;48.048;7.724;2023-02-04T06:47:05;1.97;;;1.97;;
34928;SDS011;21133;48.048;7.724;2023-02-04T06:49:31;1.93;;;1.93;;
34928;SDS011;21133;48.048;7.724;2023-02-04T06:51:57;1.60;;;1.60;;
34928;SDS011;21133;48.048;7.724;2023-02-04T06:54:23;1.33;;;1.30;;
34928;SDS011;21133;48.048;7.724;2023-02-04T06:56:49;2.10;;;1.50;;
34928;SDS011;21133;48.048;7.724;2023-02-04T06:59:15;2.33;;;2.27;;
34928;SDS011;21133;48.048;7.724;2023-02-04T07:01:41;1.70;;;1.70;;
34928;SDS011;21133;48.048;7.724;2023-02-04T07:04:07;2.93;;;1.90;;
34928;SDS011;21133;48.048;7.724;2023-02-04T07:06:33;2.33;;;1.83;;
34928;SDS011;21133;48.048;7.724;2023-02-04T07:08:59;1.43;;;1.43;;
34928;SDS011;21133;48.048;7.724;2023-02-04T07:11:24;1.30;;;1.30;;
34928;SDS011;21133;48.048;7.724;2023-02-04T07:13:50;1.70;;;1.70;;
34928;SDS011;21133;48.048;7.724;2023-02-04T07:16:16;1.97;;;1.93;;
34928;SDS011;21133;48.048;7.724;2023-02-04T07:18:42;1.67;;;1.57;;
34928;SDS011;21133;48.048;7.724;2023-02-04T07:21:08;1.80;;;1.80;;
34928;SDS011;21133;48.048;7.724;2023-02-04T07:23:37;2.73;;;2.53;;
34928;SDS011;21133;48.048;7.724;2023-02-04T07:26:03;2.43;;;2.30;;
34928;SDS011;21133;48.048;7.724;2023-02-04T07:28:29;2.50;;;1.90;;
34928;SDS011;21133;48.048;7.724;2023-02-04T07:30:58;2.30;;;2.20;;
34928;SDS011;21133;48.048;7.724;2023-02-04T07:33:24;2.07;;;2.07;;
34928;SDS011;21133;48.048;7.724;2023-02-04T07:35:50;2.50;;;2.40;;
34928;SDS011;21133;48.048;7.724;2023-02-04T07:38:16;5.90;;;5.30;;
34928;SDS011;21133;48.048;7.724;2023-02-04T07:40:42;2.60;;;2.40;;
34928;SDS011;21133;48.048;7.724;2023-02-04T07:43:07;2.63;;;2.43;;
34928;SDS011;21133;48.048;7.724;2023-02-04T07:45:33;2.50;;;2.40;;
34928;SDS011;21133;48.048;7.724;2023-02-04T07:47:59;2.40;;;2.30;;
34928;SDS011;21133;48.048;7.724;2023-02-04T07:50:25;5.27;;;2.30;;
34928;SDS011;21133;48.048;7.724;2023-02-04T07:52:51;2.97;;;2.87;;
34928;SDS011;21133;48.048;7.724;2023-02-04T07:55:17;2.40;;;2.30;;
34928;SDS011;21133;48.048;7.724;2023-02-04T07:57:43;6.63;;;2.80;;
34928;SDS011;21133;48.048;7.724;2023-02-04T08:00:09;2.57;;;2.57;;
34928;SDS011;21133;48.048;7.724;2023-02-04T08:02:38;2.70;;;2.60;;
34928;SDS011;21133;48.048;7.724;2023-02-04T08:05:04;1.90;;;1.90;;
34928;SDS011;21133;48.048;7.724;2023-02-04T08:07:30;1.80;;;1.80;;
34928;SDS011;21133;48.048;7.724;2023-02-04T08:09:56;2.50;;;2.50;;
34928;SDS011;21133;48.048;7.724;2023-02-04T08:12:22;3.17;;;1.90;;
34928;SDS011;21133;48.048;7.724;2023-02-04T08:14:49;2.33;;;2.33;;
34928;SDS011;21133;48.048;7.724;2023-02-04T08:17:15;2.40;;;2.40;;
34928;SDS011;21133;48.048;7.724;2023-02-04T08:19:41;2.53;;;2.43;;
34928;SDS011;21133;48.048;7.724;2023-02-04T08:22:07;1.97;;;1.90;;
34928;SDS011;21133;48.048;7.724;2023-02-04T08:24:34;3.80;;;2.53;;
34928;SDS011;21133;48.048;7.724;2023-02-04T08:27:00;2.67;;;2.67;;
34928;SDS011;21133;48.048;7.724;2023-02-04T08:29:26;4.63;;;2.60;;
34928;SDS011;21133;48.048;7.724;2023-02-04T08:31:52;3.00;;;3.00;;
34928;SDS011;21133;48.048;7.724;2023-02-04T08:34:18;2.70;;;2.60;;
34928;SDS011;21133;48.048;7.724;2023-02-04T08:36:44;3.30;;;2.53;;
34928;SDS011;21133;48.048;7.724;2023-02-04T08:39:10;2.20;;;2.03;;
34928;SDS011;21133;48.048;7.724;2023-02-04T08:41:36;2.50;;;2.40;;
34928;SDS011;21133;48.048;7.724;2023-02-04T08:44:02;2.83;;;2.73;;
34928;SDS011;21133;48.048;7.724;2023-02-04T08:46:28;3.20;;;3.10;;
34928;SDS011;21133;48.048;7.724;2023-02-04T08:48:54;2.57;;;2.40;;
34928;SDS011;21133;48.048;7.724;2023-02-04T08:51:20;3.57;;;3.23;;
34928;SDS011;21133;48.048;7.724;2023-02-04T08:53:46;2.17;;;2.17;;
34928;SDS011;21133;48.048;7.724;2023-02-04T08:56:12;3.30;;;3.20;;
34928;SDS011;21133;48.048;7.724;2023-02-04T08:58:47;3.03;;;2.93;;
34928;SDS011;21133;48.048;7.724;2023-02-04T09:01:17;3.67;;;3.57;;
34928;SDS011;21133;48.048;7.724;2023-02-04T09:03:43;2.33;;;2.33;;
34928;SDS011;21133;48.048;7.724;2023-02-04T09:06:09;2.80;;;2.80;;
34928;SDS011;21133;48.048;7.724;2023-02-04T09:08:35;3.30;;;3.13;;
34928;SDS011;21133;48.048;7.724;2023-02-04T09:11:02;2.80;;;2.60;;
34928;SDS011;21133;48.048;7.724;2023-02-04T09:13:28;2.73;;;2.73;;
34928;SDS011;21133;48.048;7.724;2023-02-04T09:15:54;7.70;;;2.20;;
34928;SDS011;21133;48.048;7.724;2023-02-04T09:18:20;3.43;;;3.27;;
34928;SDS011;21133;48.048;7.724;2023-02-04T09:20:50;4.27;;;4.03;;
34928;SDS011;21133;48.048;7.724;2023-02-04T09:23:16;3.47;;;3.37;;
34928;SDS011;21133;48.048;7.724;2023-02-04T09:25:43;3.80;;;3.60;;
34928;SDS011;21133;48.048;7.724;2023-02-04T09:28:10;4.03;;;3.70;;
34928;SDS011;21133;48.048;7.724;2023-02-04T09:30:40;3.10;;;3.10;;
34928;SDS011;21133;48.048;7.724;2023-02-04T09:33:06;3.40;;;3.20;;
34928;SDS011;21133;48.048;7.724;2023-02-04T09:35:32;3.40;;;3.40;;
34928;SDS011;21133;48.048;7.724;2023-02-04T09:37:58;3.13;;;2.93;;
34928;SDS011;21133;48.048;7.724;2023-02-04T09:40:26;3.33;;;3.23;;
34928;SDS011;21133;48.048;7.724;2023-02-04T09:42:52;2.67;;;2.67;;
34928;SDS011;21133;48.048;7.724;2023-02-04T09:45:23;4.20;;;3.27;;
34928;SDS011;21133;48.048;7.724;2023-02-04T09:47:50;2.90;;;2.90;;
34928;SDS011;21133;48.048;7.724;2023-02-04T09:50:18;2.87;;;2.87;;
34928;SDS011;21133;48.048;7.724;2023-02-04T09:52:45;3.30;;;3.10;;
34928;SDS011;21133;48.048;7.724;2023-02-04T09:55:15;3.37;;;3.27;;
34928;SDS011;21133;48.048;7.724;2023-02-04T09:57:41;2.20;;;2.20;;
34928;SDS011;21133;48.048;7.724;2023-02-04T10:00:14;1.73;;;1.73;;
34928;SDS011;21133;48.048;7.724;2023-02-04T10:02:41;2.77;;;2.67;;
34928;SDS011;21133;48.048;7.724;2023-02-04T10:05:40;3.53;;;3.40;;
34928;SDS011;21133;48.048;7.724;2023-02-04T10:08:01;2.27;;;2.17;;
34928;SDS011;21133;48.048;7.724;2023-02-04T10:10:29;2.60;;;2.60;;
34928;SDS011;21133;48.048;7.724;2023-02-04T10:12:56;5.43;;;5.03;;
34928;SDS011;21133;48.048;7.724;2023-02-04T10:15:23;6.30;;;5.90;;
34928;SDS011;21133;48.048;7.724;2023-02-04T10:17:52;4.87;;;4.67;;
34928;SDS011;21133;48.048;7.724;2023-02-04T10:20:20;1.70;;;1.70;;
34928;SDS011;21133;48.048;7.724;2023-02-04T10:22:46;3.00;;;1.20;;
34928;SDS011;21133;48.048;7.724;2023-02-04T10:25:16;0.80;;;0.80;;
34928;SDS011;21133;48.048;7.724;2023-02-04T10:27:46;0.73;;;0.73;;
34928;SDS011;21133;48.048;7.724;2023-02-04T10:30:20;1.20;;;1.20;;
34928;SDS011;21133;48.048;7.724;2023-02-04T10:32:46;2.17;;;1.27;;
34928;SDS011;21133;48.048;7.724;2023-02-04T10:35:14;2.07;;;1.50;;
34928;SDS011;21133;48.048;7.724;2023-02-04T10:37:40;3.30;;;1.90;;
34928;SDS011;21133;48.048;7.724;2023-02-04T10:40:22;1.80;;;1.80;;
34928;SDS011;21133;48.048;7.724;2023-02-04T10:42:49;1.63;;;1.40;;
34928;SDS011;21133;48.048;7.724;2023-02-04T10:45:27;1.30;;;1.30;;
34928;SDS011;21133;48.048;7.724;2023-02-04T10:47:54;1.17;;;1.13;;
34928;SDS011;21133;48.048;7.724;2023-02-04T10:50:22;0.90;;;0.90;;
34928;SDS011;21133;48.048;7.724;2023-02-04T10:52:50;1.33;;;1.23;;
34928;SDS011;21133;48.048;7.724;2023-02-04T10:55:17;8.63;;;1.60;;
34928;SDS011;21133;48.048;7.724;2023-02-04T10:57:45;3.50;;;2.50;;
34928;SDS011;21133;48.048;7.724;2023-02-04T11:00:21;2.10;;;2.10;;
34928;SDS011;21133;48.048;7.724;2023-02-04T11:02:51;6.43;;;2.17;;
34928;SDS011;21133;48.048;7.724;2023-02-04T11:05:20;1.60;;;1.60;;
34928;SDS011;21133;48.048;7.724;2023-02-04T11:07:47;9.40;;;1.70;;
34928;SDS011;21133;48.048;7.724;2023-02-04T11:10:15;4.33;;;1.40;;
34928;SDS011;21133;48.048;7.724;2023-02-04T11:15:35;21.40;;;9.57;;
34928;SDS011;21133;48.048;7.724;2023-02-04T11:18:02;5.20;;;4.73;;
34928;SDS011;21133;48.048;7.724;2023-02-04T11:20:30;3.40;;;3.20;;
34928;SDS011;21133;48.048;7.724;2023-02-04T11:23:12;2.80;;;1.90;;
34928;SDS011;21133;48.048;7.724;2023-02-04T11:25:38;2.27;;;2.17;;
34928;SDS011;21133;48.048;7.724;2023-02-04T11:28:14;2.93;;;1.90;;
34928;SDS011;21133;48.048;7.724;2023-02-04T11:30:40;2.50;;;2.17;;
34928;SDS011;21133;48.048;7.724;2023-02-04T11:33:20;4.03;;;1.73;;
34928;SDS011;21133;48.048;7.724;2023-02-04T11:35:59;3.80;;;2.90;;
34928;SDS011;21133;48.048;7.724;2023-02-04T11:38:26;3.47;;;3.20;;
34928;SDS011;21133;48.048;7.724;2023-02-04T11:40:56;2.80;;;2.20;;
34928;SDS011;21133;48.048;7.724;2023-02-04T11:43:22;9.30;;;4.10;;
34928;SDS011;21133;48.048;7.724;2023-02-04T11:45:48;13.30;;;6.77;;
34928;SDS011;21133;48.048;7.724;2023-02-04T11:48:24;3.47;;;3.17;;
34928;SDS011;21133;48.048;7.724;2023-02-04T11:50:57;2.63;;;2.50;;
34928;SDS011;21133;48.048;7.724;2023-02-04T11:53:27;6.50;;;3.40;;
34928;SDS011;21133;48.048;7.724;2023-02-04T11:55:53;4.77;;;2.50;;
34928;SDS011;21133;48.048;7.724;2023-02-04T11:58:19;13.63;;;1.80;;
34928;SDS011;21133;48.048;7.724;2023-02-04T12:00:46;2.50;;;2.00;;
34928;SDS011;21133;48.048;7.724;2023-02-04T12:03:20;5.43;;;3.00;;
34928;SDS011;21133;48.048;7.724;2023-02-04T12:05:46;3.13;;;2.10;;
34928;SDS011;21133;48.048;7.724;2023-02-04T12:13:30;3.00;;;2.30;;
34928;SDS011;21133;48.048;7.724;2023-02-04T12:16:01;5.83;;;2.47;;
34928;SDS011;21133;48.048;7.724;2023-02-04T12:18:27;4.00;;;2.53;;
34928;SDS011;21133;48.048;7.724;2023-02-04T12:20:54;2.63;;;1.97;;
34928;SDS011;21133;48.048;7.724;2023-02-04T12:23:21;2.53;;;1.87;;
34928;SDS011;21133;48.048;7.724;2023-02-04T12:25:47;2.13;;;1.97;;
34928;SDS011;21133;48.048;7.724;2023-02-04T12:28:13;2.50;;;2.30;;
34928;SDS011;21133;48.048;7.724;2023-02-04T12:30:39;2.67;;;2.37;;
34928;SDS011;21133;48.048;7.724;2023-02-04T12:33:05;3.13;;;2.47;;
34928;SDS011;21133;48.048;7.724;2023-02-04T12:35:32;2.57;;;2.47;;
34928;SDS011;21133;48.048;7.724;2023-02-04T12:37:58;5.73;;;3.17;;
34928;SDS011;21133;48.048;7.724;2023-02-04T12:40:24;6.37;;;3.70;;
34928;SDS011;21133;48.048;7.724;2023-02-04T12:42:50;7.40;;;3.60;;
34928;SDS011;21133;48.048;7.724;2023-02-04T12:45:16;2.50;;;1.93;;
34928;SDS011;21133;48.048;7.724;2023-02-04T12:47:42;10.33;;;1.63;;
34928;SDS011;21133;48.048;7.724;2023-02-04T12:50:12;2.90;;;1.93;;
34928;SDS011;21133;48.048;7.724;2023-02-04T12:52:38;3.00;;;1.47;;
34928;SDS011;21133;48.048;7.724;2023-02-04T12:55:06;4.47;;;1.50;;
34928;SDS011;21133;48.048;7.724;2023-02-04T12:57:32;9.03;;;1.97;;
34928;SDS011;21133;48.048;7.724;2023-02-04T12:59:59;3.20;;;2.20;;
34928;SDS011;21133;48.048;7.724;2023-02-04T13:02:25;11.27;;;2.03;;
34928;SDS011;21133;48.048;7.724;2023-02-04T13:04:51;3.70;;;2.43;;
34928;SDS011;21133;48.048;7.724;2023-02-04T13:07:17;13.13;;;2.67;;
34928;SDS011;21133;48.048;7.724;2023-02-04T13:09:43;7.73;;;2.10;;
34928;SDS011;21133;48.048;7.724;2023-02-04T13:12:10;7.23;;;3.20;;
34928;SDS011;21133;48.048;7.724;2023-02-04T13:14:39;10.93;;;3.43;;
34928;SDS011;21133;48.048;7.724;2023-02-04T13:17:05;4.37;;;2.73;;
34928;SDS011;21133;48.048;7.724;2023-02-04T13:19:31;14.47;;;3.03;;
34928;SDS011;21133;48.048;7.724;2023-02-04T13:21:57;2.63;;;2.17;;
34928;SDS011;21133;48.048;7.724;2023-02-04T13:24:23;2.73;;;1.63;;
34928;SDS011;21133;48.048;7.724;2023-02-04T13:26:49;3.23;;;2.03;;
34928;SDS011;21133;48.048;7.724;2023-02-04T13:29:15;4.80;;;1.83;;
34928;SDS011;21133;48.048;7.724;2023-02-04T13:31:41;6.00;;;2.20;;
34928;SDS011;21133;48.048;7.724;2023-02-04T13:34:08;4.17;;;1.83;;
34928;SDS011;21133;48.048;7.724;2023-02-04T13:36:33;5.33;;;1.87;;
34928;SDS011;21133;48.048;7.724;2023-02-04T13:39:00;5.30;;;3.20;;
34928;SDS011;21133;48.048;7.724;2023-02-04T13:41:26;6.83;;;2.43;;
34928;SDS011;21133;48.048;7.724;2023-02-04T13:43:52;4.20;;;1.40;;
34928;SDS011;21133;48.048;7.724;2023-02-04T13:46:18;13.43;;;2.10;;
34928;SDS011;21133;48.048;7.724;2023-02-04T13:48:44;6.23;;;1.90;;
34928;SDS011;21133;48.048;7.724;2023-02-04T13:51:10;4.63;;;2.40;;
34928;SDS011;21133;48.048;7.724;2023-02-04T13:53:36;5.37;;;1.93;;
34928;SDS011;21133;48.048;7.724;2023-02-04T13:56:02;7.97;;;3.03;;
34928;SDS011;21133;48.048;7.724;2023-02-04T13:58:28;8.37;;;2.17;;
34928;SDS011;21133;48.048;7.724;2023-02-04T14:00:54;4.63;;;2.00;;
34928;SDS011;21133;48.048;7.724;2023-02-04T14:03:24;6.10;;;2.53;;
34928;SDS011;21133;48.048;7.724;2023-02-04T14:05:51;5.63;;;1.93;;
34928;SDS011;21133;48.048;7.724;2023-02-04T14:08:17;9.17;;;6.17;;
34928;SDS011;21133;48.048;7.724;2023-02-04T14:10:43;4.60;;;1.77;;
34928;SDS011;21133;48.048;7.724;2023-02-04T14:13:09;3.53;;;1.50;;
34928;SDS011;21133;48.048;7.724;2023-02-04T14:15:35;5.20;;;1.90;;
34928;SDS011;21133;48.048;7.724;2023-02-04T14:18:02;4.77;;;1.80;;
34928;SDS011;21133;48.048;7.724;2023-02-04T14:20:28;17.00;;;2.30;;
34928;SDS011;21133;48.048;7.724;2023-02-04T14:22:54;1.90;;;1.70;;
34928;SDS011;21133;48.048;7.724;2023-02-04T14:25:20;4.53;;;1.43;;
34928;SDS011;21133;48.048;7.724;2023-02-04T14:27:46;5.10;;;1.70;;
34928;SDS011;21133;48.048;7.724;2023-02-04T14:30:20;9.57;;;2.80;;
34928;SDS011;21133;48.048;7.724;2023-02-04T14:32:46;14.50;;;2.90;;
34928;SDS011;21133;48.048;7.724;2023-02-04T14:35:12;16.07;;;2.57;;
34928;SDS011;21133;48.048;7.724;2023-02-04T14:37:39;5.07;;;1.93;;
34928;SDS011;21133;48.048;7.724;2023-02-04T14:40:05;6.43;;;2.30;;
34928;SDS011;21133;48.048;7.724;2023-02-04T14:42:31;3.80;;;2.13;;
34928;SDS011;21133;48.048;7.724;2023-02-04T14:44:57;5.40;;;1.67;;
34928;SDS011;21133;48.048;7.724;2023-02-04T14:47:23;10.60;;;1.93;;
34928;SDS011;21133;48.048;7.724;2023-02-04T14:49:49;10.83;;;2.80;;
34928;SDS011;21133;48.048;7.724;2023-02-04T14:52:15;5.40;;;2.60;;
34928;SDS011;21133;48.048;7.724;2023-02-04T14:54:41;5.00;;;2.97;;